sensor_id;sensor_type;location;lat;lon;timestamp;temperature;humidity
62583;DHT22;48641;51.676;5.808;2022-07-23T00:00:48;23.30;55.00
62583;DHT22;48641;51.676;5.808;2022-07-23T00:03:14;23.30;55.00
62583;DHT22;48641;51.676;5.808;2022-07-23T00:05:40;23.30;55.10
62583;DHT22;48641;51.676;5.808;2022-07-23T00:08:06;23.30;55.10
62583;DHT22;48641;51.676;5.808;2022-07-23T00:10:32;23.30;55.10
62583;DHT22;48641;51.676;5.808;2022-07-23T00:12:58;23.30;55.10
62583;DHT22;48641;51.676;5.808;2022-07-23T00:15:24;23.30;55.10
62583;DHT22;48641;51.676;5.808;2022-07-23T00:17:49;23.20;55.00
62583;DHT22;48641;51.676;5.808;2022-07-23T00:20:15;23.30;55.20
62583;DHT22;48641;51.676;5.808;2022-07-23T00:23:07;23.20;55.10
62583;DHT22;48641;51.676;5.808;2022-07-23T00:25:32;23.30;55.10
62583;DHT22;48641;51.676;5.808;2022-07-23T00:27:59;23.20;55.30
62583;DHT22;48641;51.676;5.808;2022-07-23T00:30:25;23.20;55.30
62583;DHT22;48641;51.676;5.808;2022-07-23T00:32:54;23.20;55.20
62583;DHT22;48641;51.676;5.808;2022-07-23T00:35:21;23.20;55.30
62583;DHT22;48641;51.676;5.808;2022-07-23T00:37:47;23.20;55.30
62583;DHT22;48641;51.676;5.808;2022-07-23T00:40:14;23.20;55.20
62583;DHT22;48641;51.676;5.808;2022-07-23T00:42:39;23.20;55.20
62583;DHT22;48641;51.676;5.808;2022-07-23T00:45:05;23.20;55.20
62583;DHT22;48641;51.676;5.808;2022-07-23T00:47:31;23.20;55.20
62583;DHT22;48641;51.676;5.808;2022-07-23T00:49:57;23.20;55.10
62583;DHT22;48641;51.676;5.808;2022-07-23T00:52:22;23.20;55.10
62583;DHT22;48641;51.676;5.808;2022-07-23T00:54:48;23.20;56.20
62583;DHT22;48641;51.676;5.808;2022-07-23T00:57:14;23.20;55.20
62583;DHT22;48641;51.676;5.808;2022-07-23T00:59:40;23.10;55.10
62583;DHT22;48641;51.676;5.808;2022-07-23T01:02:06;23.20;55.20
62583;DHT22;48641;51.676;5.808;2022-07-23T01:04:31;23.10;55.10
62583;DHT22;48641;51.676;5.808;2022-07-23T01:06:57;23.10;55.10
62583;DHT22;48641;51.676;5.808;2022-07-23T01:09:23;23.10;55.10
62583;DHT22;48641;51.676;5.808;2022-07-23T01:11:50;23.10;55.20
62583;DHT22;48641;51.676;5.808;2022-07-23T01:14:18;23.10;55.20
62583;DHT22;48641;51.676;5.808;2022-07-23T01:16:46;23.10;55.10
62583;DHT22;48641;51.676;5.808;2022-07-23T01:19:13;23.10;55.10
62583;DHT22;48641;51.676;5.808;2022-07-23T01:21:42;23.10;55.10
62583;DHT22;48641;51.676;5.808;2022-07-23T01:24:09;23.10;55.10
62583;DHT22;48641;51.676;5.808;2022-07-23T01:26:35;23.10;55.10
62583;DHT22;48641;51.676;5.808;2022-07-23T01:29:01;23.00;55.10
62583;DHT22;48641;51.676;5.808;2022-07-23T01:31:26;23.00;55.00
62583;DHT22;48641;51.676;5.808;2022-07-23T01:33:52;23.10;55.00
62583;DHT22;48641;51.676;5.808;2022-07-23T01:36:18;23.00;55.00
62583;DHT22;48641;51.676;5.808;2022-07-23T01:38:43;23.00;55.10
62583;DHT22;48641;51.676;5.808;2022-07-23T01:41:10;23.00;55.00
62583;DHT22;48641;51.676;5.808;2022-07-23T01:43:35;23.00;55.10
62583;DHT22;48641;51.676;5.808;2022-07-23T01:46:01;23.00;55.10
62583;DHT22;48641;51.676;5.808;2022-07-23T01:48:26;22.90;55.00
62583;DHT22;48641;51.676;5.808;2022-07-23T01:50:52;23.00;55.10
62583;DHT22;48641;51.676;5.808;2022-07-23T01:53:17;23.00;55.10
62583;DHT22;48641;51.676;5.808;2022-07-23T01:55:43;22.90;55.10
62583;DHT22;48641;51.676;5.808;2022-07-23T01:58:09;22.90;55.10
62583;DHT22;48641;51.676;5.808;2022-07-23T02:00:35;23.00;55.10
62583;DHT22;48641;51.676;5.808;2022-07-23T02:03:00;22.90;55.00
62583;DHT22;48641;51.676;5.808;2022-07-23T02:05:26;22.90;55.00
62583;DHT22;48641;51.676;5.808;2022-07-23T02:07:54;22.90;55.00
62583;DHT22;48641;51.676;5.808;2022-07-23T02:10:20;22.90;54.90
62583;DHT22;48641;51.676;5.808;2022-07-23T02:12:46;22.90;54.90
62583;DHT22;48641;51.676;5.808;2022-07-23T02:15:12;22.90;54.90
62583;DHT22;48641;51.676;5.808;2022-07-23T02:17:38;22.90;55.00
62583;DHT22;48641;51.676;5.808;2022-07-23T02:20:04;22.90;54.90
62583;DHT22;48641;51.676;5.808;2022-07-23T02:22:30;22.90;54.90
62583;DHT22;48641;51.676;5.808;2022-07-23T02:24:56;22.90;55.00
62583;DHT22;48641;51.676;5.808;2022-07-23T02:27:21;22.90;55.00
62583;DHT22;48641;51.676;5.808;2022-07-23T02:29:48;22.80;54.90
62583;DHT22;48641;51.676;5.808;2022-07-23T02:32:14;22.90;54.90
62583;DHT22;48641;51.676;5.808;2022-07-23T02:34:39;22.80;54.90
62583;DHT22;48641;51.676;5.808;2022-07-23T02:37:05;22.90;54.90
62583;DHT22;48641;51.676;5.808;2022-07-23T02:39:30;22.80;54.80
62583;DHT22;48641;51.676;5.808;2022-07-23T02:41:56;22.80;54.80
62583;DHT22;48641;51.676;5.808;2022-07-23T02:44:21;22.80;54.80
62583;DHT22;48641;51.676;5.808;2022-07-23T02:46:47;22.80;54.80
62583;DHT22;48641;51.676;5.808;2022-07-23T02:49:13;22.80;54.80
62583;DHT22;48641;51.676;5.808;2022-07-23T02:51:38;22.80;54.80
62583;DHT22;48641;51.676;5.808;2022-07-23T02:54:04;22.80;54.70
62583;DHT22;48641;51.676;5.808;2022-07-23T02:56:30;22.80;54.80
62583;DHT22;48641;51.676;5.808;2022-07-23T02:58:55;22.80;54.80
62583;DHT22;48641;51.676;5.808;2022-07-23T03:01:21;22.70;54.70
62583;DHT22;48641;51.676;5.808;2022-07-23T03:03:47;22.70;54.80
62583;DHT22;48641;51.676;5.808;2022-07-23T03:06:13;22.70;54.80
62583;DHT22;48641;51.676;5.808;2022-07-23T03:08:39;22.70;54.80
62583;DHT22;48641;51.676;5.808;2022-07-23T03:11:04;22.70;54.80
62583;DHT22;48641;51.676;5.808;2022-07-23T03:13:39;22.70;54.80
62583;DHT22;48641;51.676;5.808;2022-07-23T03:16:05;22.70;54.80
62583;DHT22;48641;51.676;5.808;2022-07-23T03:18:31;22.70;54.80
62583;DHT22;48641;51.676;5.808;2022-07-23T03:20:56;22.70;54.70
62583;DHT22;48641;51.676;5.808;2022-07-23T03:23:22;22.70;54.70
62583;DHT22;48641;51.676;5.808;2022-07-23T03:25:48;22.70;54.60
62583;DHT22;48641;51.676;5.808;2022-07-23T03:28:17;22.70;54.60
62583;DHT22;48641;51.676;5.808;2022-07-23T03:30:44;22.70;54.60
62583;DHT22;48641;51.676;5.808;2022-07-23T03:33:12;22.70;54.60
62583;DHT22;48641;51.676;5.808;2022-07-23T03:35:38;22.70;54.60
62583;DHT22;48641;51.676;5.808;2022-07-23T03:38:04;22.60;54.50
62583;DHT22;48641;51.676;5.808;2022-07-23T03:40:30;22.60;54.50
62583;DHT22;48641;51.676;5.808;2022-07-23T03:42:55;22.60;54.50
62583;DHT22;48641;51.676;5.808;2022-07-23T03:45:21;22.60;54.50
62583;DHT22;48641;51.676;5.808;2022-07-23T03:47:46;22.60;54.50
62583;DHT22;48641;51.676;5.808;2022-07-23T03:50:12;22.60;54.50
62583;DHT22;48641;51.676;5.808;2022-07-23T03:52:37;22.60;54.50
62583;DHT22;48641;51.676;5.808;2022-07-23T03:55:03;22.50;54.40
62583;DHT22;48641;51.676;5.808;2022-07-23T03:57:30;22.60;54.50
62583;DHT22;48641;51.676;5.808;2022-07-23T03:59:56;22.60;54.50
62583;DHT22;48641;51.676;5.808;2022-07-23T04:02:22;22.50;54.40
62583;DHT22;48641;51.676;5.808;2022-07-23T04:04:47;22.60;54.50
62583;DHT22;48641;51.676;5.808;2022-07-23T04:07:13;22.60;54.40
62583;DHT22;48641;51.676;5.808;2022-07-23T04:09:39;22.50;54.40
62583;DHT22;48641;51.676;5.808;2022-07-23T04:12:07;22.50;54.40
62583;DHT22;48641;51.676;5.808;2022-07-23T04:14:33;22.50;54.40
62583;DHT22;48641;51.676;5.808;2022-07-23T04:16:59;22.50;54.40
62583;DHT22;48641;51.676;5.808;2022-07-23T04:19:25;22.50;54.40
62583;DHT22;48641;51.676;5.808;2022-07-23T04:21:51;22.50;54.40
62583;DHT22;48641;51.676;5.808;2022-07-23T04:24:17;22.50;54.40
62583;DHT22;48641;51.676;5.808;2022-07-23T04:26:43;22.50;54.40
62583;DHT22;48641;51.676;5.808;2022-07-23T04:29:08;22.50;54.40
62583;DHT22;48641;51.676;5.808;2022-07-23T04:31:34;22.40;54.30
62583;DHT22;48641;51.676;5.808;2022-07-23T04:34:00;22.40;54.40
62583;DHT22;48641;51.676;5.808;2022-07-23T04:36:25;22.40;54.40
62583;DHT22;48641;51.676;5.808;2022-07-23T04:38:51;22.50;54.40
62583;DHT22;48641;51.676;5.808;2022-07-23T04:41:16;22.40;54.40
62583;DHT22;48641;51.676;5.808;2022-07-23T04:43:42;22.40;54.40
62583;DHT22;48641;51.676;5.808;2022-07-23T04:46:07;22.40;54.40
62583;DHT22;48641;51.676;5.808;2022-07-23T04:48:33;22.50;54.40
62583;DHT22;48641;51.676;5.808;2022-07-23T04:50:58;22.40;54.40
62583;DHT22;48641;51.676;5.808;2022-07-23T04:53:24;22.50;54.40
62583;DHT22;48641;51.676;5.808;2022-07-23T04:55:50;22.50;54.40
62583;DHT22;48641;51.676;5.808;2022-07-23T04:58:15;22.40;54.30
62583;DHT22;48641;51.676;5.808;2022-07-23T05:00:41;22.40;54.30
62583;DHT22;48641;51.676;5.808;2022-07-23T05:03:06;22.40;54.40
62583;DHT22;48641;51.676;5.808;2022-07-23T05:05:32;22.40;54.40
62583;DHT22;48641;51.676;5.808;2022-07-23T05:07:57;22.40;54.50
62583;DHT22;48641;51.676;5.808;2022-07-23T05:10:23;22.40;54.50
62583;DHT22;48641;51.676;5.808;2022-07-23T05:12:48;22.40;54.50
62583;DHT22;48641;51.676;5.808;2022-07-23T05:15:14;22.40;54.50
62583;DHT22;48641;51.676;5.808;2022-07-23T05:17:40;22.30;54.50
62583;DHT22;48641;51.676;5.808;2022-07-23T05:20:05;22.40;54.60
62583;DHT22;48641;51.676;5.808;2022-07-23T05:22:32;22.40;54.70
62583;DHT22;48641;51.676;5.808;2022-07-23T05:24:58;22.30;54.60
62583;DHT22;48641;51.676;5.808;2022-07-23T05:27:23;22.40;54.70
62583;DHT22;48641;51.676;5.808;2022-07-23T05:29:49;22.40;54.70
62583;DHT22;48641;51.676;5.808;2022-07-23T05:32:15;22.40;54.70
62583;DHT22;48641;51.676;5.808;2022-07-23T05:34:40;22.40;54.70
62583;DHT22;48641;51.676;5.808;2022-07-23T05:37:06;22.30;54.70
62583;DHT22;48641;51.676;5.808;2022-07-23T05:39:31;22.30;54.70
62583;DHT22;48641;51.676;5.808;2022-07-23T05:41:57;22.40;54.70
62583;DHT22;48641;51.676;5.808;2022-07-23T05:44:23;22.40;54.80
62583;DHT22;48641;51.676;5.808;2022-07-23T05:46:48;22.30;54.80
62583;DHT22;48641;51.676;5.808;2022-07-23T05:49:14;22.30;54.80
62583;DHT22;48641;51.676;5.808;2022-07-23T05:51:40;22.30;54.80
62583;DHT22;48641;51.676;5.808;2022-07-23T05:54:05;22.30;54.90
62583;DHT22;48641;51.676;5.808;2022-07-23T05:56:31;22.30;54.90
62583;DHT22;48641;51.676;5.808;2022-07-23T05:58:56;22.30;54.90
62583;DHT22;48641;51.676;5.808;2022-07-23T06:01:22;22.30;54.90
62583;DHT22;48641;51.676;5.808;2022-07-23T06:03:48;22.30;54.90
62583;DHT22;48641;51.676;5.808;2022-07-23T06:06:13;22.30;54.90
62583;DHT22;48641;51.676;5.808;2022-07-23T06:08:39;22.30;54.90
62583;DHT22;48641;51.676;5.808;2022-07-23T06:11:04;22.30;54.90
62583;DHT22;48641;51.676;5.808;2022-07-23T06:13:30;22.30;54.90
62583;DHT22;48641;51.676;5.808;2022-07-23T06:15:56;22.30;54.90
62583;DHT22;48641;51.676;5.808;2022-07-23T06:18:21;22.30;54.90
62583;DHT22;48641;51.676;5.808;2022-07-23T06:20:47;22.30;55.00
62583;DHT22;48641;51.676;5.808;2022-07-23T06:23:12;22.30;55.00
62583;DHT22;48641;51.676;5.808;2022-07-23T06:25:38;22.30;55.00
62583;DHT22;48641;51.676;5.808;2022-07-23T06:28:04;22.30;55.10
62583;DHT22;48641;51.676;5.808;2022-07-23T06:30:30;22.30;55.10
62583;DHT22;48641;51.676;5.808;2022-07-23T06:32:55;22.30;55.10
62583;DHT22;48641;51.676;5.808;2022-07-23T06:35:21;22.30;55.20
62583;DHT22;48641;51.676;5.808;2022-07-23T06:37:46;22.30;55.20
62583;DHT22;48641;51.676;5.808;2022-07-23T06:40:12;22.30;55.30
62583;DHT22;48641;51.676;5.808;2022-07-23T06:42:38;22.30;55.30
62583;DHT22;48641;51.676;5.808;2022-07-23T06:45:05;22.30;55.30
62583;DHT22;48641;51.676;5.808;2022-07-23T06:47:31;22.30;55.40
62583;DHT22;48641;51.676;5.808;2022-07-23T06:49:58;22.30;55.30
62583;DHT22;48641;51.676;5.808;2022-07-23T06:52:23;22.30;55.30
62583;DHT22;48641;51.676;5.808;2022-07-23T06:54:49;22.30;55.30
62583;DHT22;48641;51.676;5.808;2022-07-23T06:57:15;22.30;55.30
62583;DHT22;48641;51.676;5.808;2022-07-23T06:59:40;22.30;55.40
62583;DHT22;48641;51.676;5.808;2022-07-23T07:02:07;22.30;55.40
62583;DHT22;48641;51.676;5.808;2022-07-23T07:04:33;22.30;55.40
62583;DHT22;48641;51.676;5.808;2022-07-23T07:06:58;22.30;55.50
62583;DHT22;48641;51.676;5.808;2022-07-23T07:09:24;22.30;55.50
62583;DHT22;48641;51.676;5.808;2022-07-23T07:11:49;22.30;55.50
62583;DHT22;48641;51.676;5.808;2022-07-23T07:14:15;22.40;55.40
62583;DHT22;48641;51.676;5.808;2022-07-23T07:16:40;22.30;55.40
62583;DHT22;48641;51.676;5.808;2022-07-23T07:19:06;22.30;55.50
62583;DHT22;48641;51.676;5.808;2022-07-23T07:21:32;22.30;55.40
62583;DHT22;48641;51.676;5.808;2022-07-23T07:23:57;22.30;55.40
62583;DHT22;48641;51.676;5.808;2022-07-23T07:26:23;22.30;55.50
62583;DHT22;48641;51.676;5.808;2022-07-23T07:28:48;22.30;55.50
62583;DHT22;48641;51.676;5.808;2022-07-23T07:31:14;22.30;55.50
62583;DHT22;48641;51.676;5.808;2022-07-23T07:33:40;22.30;55.50
62583;DHT22;48641;51.676;5.808;2022-07-23T07:36:05;22.30;55.40
62583;DHT22;48641;51.676;5.808;2022-07-23T07:38:31;22.40;55.40
62583;DHT22;48641;51.676;5.808;2022-07-23T07:40:56;22.30;55.40
62583;DHT22;48641;51.676;5.808;2022-07-23T07:43:22;22.30;55.30
62583;DHT22;48641;51.676;5.808;2022-07-23T07:45:48;22.40;55.40
62583;DHT22;48641;51.676;5.808;2022-07-23T07:48:13;22.40;55.30
62583;DHT22;48641;51.676;5.808;2022-07-23T07:50:39;22.40;55.30
62583;DHT22;48641;51.676;5.808;2022-07-23T07:53:04;22.30;55.30
62583;DHT22;48641;51.676;5.808;2022-07-23T07:55:30;22.40;55.40
62583;DHT22;48641;51.676;5.808;2022-07-23T07:57:56;22.40;55.30
62583;DHT22;48641;51.676;5.808;2022-07-23T08:00:22;22.40;55.20
62583;DHT22;48641;51.676;5.808;2022-07-23T08:02:50;22.40;55.30
62583;DHT22;48641;51.676;5.808;2022-07-23T08:05:23;22.40;55.30
62583;DHT22;48641;51.676;5.808;2022-07-23T08:07:49;22.40;55.20
62583;DHT22;48641;51.676;5.808;2022-07-23T08:10:15;22.40;55.20
62583;DHT22;48641;51.676;5.808;2022-07-23T08:12:46;22.40;55.20
62583;DHT22;48641;51.676;5.808;2022-07-23T08:15:14;22.40;55.30
62583;DHT22;48641;51.676;5.808;2022-07-23T08:17:41;22.40;55.30
62583;DHT22;48641;51.676;5.808;2022-07-23T08:20:07;22.40;55.30
62583;DHT22;48641;51.676;5.808;2022-07-23T08:22:43;22.40;55.40
62583;DHT22;48641;51.676;5.808;2022-07-23T08:25:10;22.40;55.40
62583;DHT22;48641;51.676;5.808;2022-07-23T08:27:35;22.50;55.40
62583;DHT22;48641;51.676;5.808;2022-07-23T08:30:01;22.50;55.40
62583;DHT22;48641;51.676;5.808;2022-07-23T08:32:26;22.50;55.40
62583;DHT22;48641;51.676;5.808;2022-07-23T08:34:52;22.50;55.40
62583;DHT22;48641;51.676;5.808;2022-07-23T08:37:17;22.50;55.40
62583;DHT22;48641;51.676;5.808;2022-07-23T08:39:43;22.50;55.40
62583;DHT22;48641;51.676;5.808;2022-07-23T08:42:09;22.50;55.40
62583;DHT22;48641;51.676;5.808;2022-07-23T08:44:35;22.50;55.30
62583;DHT22;48641;51.676;5.808;2022-07-23T08:47:01;22.50;55.20
62583;DHT22;48641;51.676;5.808;2022-07-23T08:49:27;22.50;55.30
62583;DHT22;48641;51.676;5.808;2022-07-23T08:51:54;22.50;55.20
62583;DHT22;48641;51.676;5.808;2022-07-23T08:54:21;22.50;55.20
62583;DHT22;48641;51.676;5.808;2022-07-23T08:56:48;22.50;55.20
62583;DHT22;48641;51.676;5.808;2022-07-23T08:59:13;22.50;55.20
62583;DHT22;48641;51.676;5.808;2022-07-23T09:01:39;22.50;55.30
62583;DHT22;48641;51.676;5.808;2022-07-23T09:04:05;22.50;55.40
62583;DHT22;48641;51.676;5.808;2022-07-23T09:06:30;22.50;55.40
62583;DHT22;48641;51.676;5.808;2022-07-23T09:08:56;22.60;55.40
62583;DHT22;48641;51.676;5.808;2022-07-23T09:11:22;22.60;55.50
62583;DHT22;48641;51.676;5.808;2022-07-23T09:13:49;22.60;55.30
62583;DHT22;48641;51.676;5.808;2022-07-23T09:16:16;22.60;55.30
62583;DHT22;48641;51.676;5.808;2022-07-23T09:18:46;22.60;55.30
62583;DHT22;48641;51.676;5.808;2022-07-23T09:23:47;22.70;55.20
62583;DHT22;48641;51.676;5.808;2022-07-23T09:26:33;22.70;55.00
62583;DHT22;48641;51.676;5.808;2022-07-23T09:29:05;22.70;55.00
62583;DHT22;48641;51.676;5.808;2022-07-23T09:31:49;22.70;55.00
62583;DHT22;48641;51.676;5.808;2022-07-23T09:34:23;22.70;55.00
62583;DHT22;48641;51.676;5.808;2022-07-23T09:36:52;22.70;55.00
62583;DHT22;48641;51.676;5.808;2022-07-23T09:39:28;22.70;54.90
62583;DHT22;48641;51.676;5.808;2022-07-23T09:41:54;22.70;54.90
62583;DHT22;48641;51.676;5.808;2022-07-23T09:44:21;22.70;54.90
62583;DHT22;48641;51.676;5.808;2022-07-23T09:46:49;22.70;54.90
62583;DHT22;48641;51.676;5.808;2022-07-23T09:49:16;22.70;54.90
62583;DHT22;48641;51.676;5.808;2022-07-23T09:54:23;22.80;54.90
62583;DHT22;48641;51.676;5.808;2022-07-23T09:56:51;22.80;54.80
62583;DHT22;48641;51.676;5.808;2022-07-23T09:59:17;22.80;54.90
62583;DHT22;48641;51.676;5.808;2022-07-23T10:01:44;22.80;54.80
62583;DHT22;48641;51.676;5.808;2022-07-23T10:04:14;22.80;54.80
62583;DHT22;48641;51.676;5.808;2022-07-23T10:06:40;22.90;54.70
62583;DHT22;48641;51.676;5.808;2022-07-23T10:09:10;22.80;54.40
62583;DHT22;48641;51.676;5.808;2022-07-23T10:11:37;22.80;54.50
62583;DHT22;48641;51.676;5.808;2022-07-23T10:14:04;22.80;54.50
62583;DHT22;48641;51.676;5.808;2022-07-23T10:16:31;22.80;54.60
62583;DHT22;48641;51.676;5.808;2022-07-23T10:18:57;22.80;54.40
62583;DHT22;48641;51.676;5.808;2022-07-23T10:21:46;22.90;54.50
62583;DHT22;48641;51.676;5.808;2022-07-23T10:24:21;22.90;53.90
62583;DHT22;48641;51.676;5.808;2022-07-23T10:27:04;22.90;54.40
62583;DHT22;48641;51.676;5.808;2022-07-23T10:29:54;22.90;54.30
62583;DHT22;48641;51.676;5.808;2022-07-23T10:32:45;22.90;54.30
62583;DHT22;48641;51.676;5.808;2022-07-23T10:37:45;22.90;54.60
62583;DHT22;48641;51.676;5.808;2022-07-23T10:42:46;23.00;54.70
62583;DHT22;48641;51.676;5.808;2022-07-23T10:45:35;23.00;54.60
62583;DHT22;48641;51.676;5.808;2022-07-23T10:50:39;23.10;55.50
62583;DHT22;48641;51.676;5.808;2022-07-23T10:57:57;23.20;54.70
62583;DHT22;48641;51.676;5.808;2022-07-23T11:00:27;23.20;54.70
62583;DHT22;48641;51.676;5.808;2022-07-23T11:02:56;23.20;54.40
62583;DHT22;48641;51.676;5.808;2022-07-23T11:05:38;23.20;54.10
62583;DHT22;48641;51.676;5.808;2022-07-23T11:10:38;23.30;54.40
62583;DHT22;48641;51.676;5.808;2022-07-23T11:32:03;23.50;53.80
62583;DHT22;48641;51.676;5.808;2022-07-23T11:34:42;23.50;53.80
62583;DHT22;48641;51.676;5.808;2022-07-23T11:37:25;23.50;53.80
62583;DHT22;48641;51.676;5.808;2022-07-23T11:39:55;23.50;53.80
62583;DHT22;48641;51.676;5.808;2022-07-23T11:42:21;23.50;53.80
62583;DHT22;48641;51.676;5.808;2022-07-23T11:44:46;23.60;53.90
62583;DHT22;48641;51.676;5.808;2022-07-23T11:47:12;23.60;53.80
62583;DHT22;48641;51.676;5.808;2022-07-23T11:49:39;23.60;53.70
62583;DHT22;48641;51.676;5.808;2022-07-23T11:52:14;23.70;53.50
62583;DHT22;48641;51.676;5.808;2022-07-23T11:54:54;23.70;53.30
62583;DHT22;48641;51.676;5.808;2022-07-23T11:57:23;23.70;53.30
62583;DHT22;48641;51.676;5.808;2022-07-23T11:59:52;23.70;53.40
62583;DHT22;48641;51.676;5.808;2022-07-23T12:02:19;23.80;53.40
62583;DHT22;48641;51.676;5.808;2022-07-23T12:04:46;23.80;53.50
62583;DHT22;48641;51.676;5.808;2022-07-23T12:09:49;23.80;53.20
62583;DHT22;48641;51.676;5.808;2022-07-23T12:12:15;23.80;53.00
62583;DHT22;48641;51.676;5.808;2022-07-23T12:14:52;23.80;53.00
62583;DHT22;48641;51.676;5.808;2022-07-23T12:17:19;23.90;52.90
62583;DHT22;48641;51.676;5.808;2022-07-23T12:19:45;23.80;52.60
62583;DHT22;48641;51.676;5.808;2022-07-23T12:22:12;23.90;52.60
62583;DHT22;48641;51.676;5.808;2022-07-23T12:24:59;23.90;52.60
62583;DHT22;48641;51.676;5.808;2022-07-23T12:27:25;24.00;52.50
62583;DHT22;48641;51.676;5.808;2022-07-23T12:29:51;23.90;52.60
62583;DHT22;48641;51.676;5.808;2022-07-23T12:32:25;24.00;52.60
62583;DHT22;48641;51.676;5.808;2022-07-23T12:35:08;24.00;52.50
62583;DHT22;48641;51.676;5.808;2022-07-23T12:37:39;24.00;52.50
62583;DHT22;48641;51.676;5.808;2022-07-23T12:40:29;24.00;52.40
62583;DHT22;48641;51.676;5.808;2022-07-23T12:42:58;24.10;52.20
62583;DHT22;48641;51.676;5.808;2022-07-23T12:45:25;24.10;52.40
62583;DHT22;48641;51.676;5.808;2022-07-23T12:48:05;24.10;52.40
62583;DHT22;48641;51.676;5.808;2022-07-23T12:53:19;24.10;52.20
62583;DHT22;48641;51.676;5.808;2022-07-23T12:55:46;24.20;52.20
62583;DHT22;48641;51.676;5.808;2022-07-23T12:58:17;24.20;52.30
62583;DHT22;48641;51.676;5.808;2022-07-23T13:00:59;24.20;52.30
62583;DHT22;48641;51.676;5.808;2022-07-23T13:03:35;24.20;52.20
62583;DHT22;48641;51.676;5.808;2022-07-23T13:06:02;24.20;52.20
62583;DHT22;48641;51.676;5.808;2022-07-23T13:08:29;24.20;52.00
62583;DHT22;48641;51.676;5.808;2022-07-23T13:10:55;24.20;52.00
62583;DHT22;48641;51.676;5.808;2022-07-23T13:13:23;24.30;52.10
62583;DHT22;48641;51.676;5.808;2022-07-23T13:15:49;24.30;52.00
62583;DHT22;48641;51.676;5.808;2022-07-23T13:18:16;24.30;51.80
62583;DHT22;48641;51.676;5.808;2022-07-23T13:20:43;24.40;51.90
62583;DHT22;48641;51.676;5.808;2022-07-23T13:23:08;24.40;51.70
62583;DHT22;48641;51.676;5.808;2022-07-23T13:25:34;24.40;51.60
62583;DHT22;48641;51.676;5.808;2022-07-23T13:28:00;24.40;51.60
62583;DHT22;48641;51.676;5.808;2022-07-23T13:30:26;24.40;51.60
62583;DHT22;48641;51.676;5.808;2022-07-23T13:32:51;24.40;51.50
62583;DHT22;48641;51.676;5.808;2022-07-23T13:35:17;24.40;51.50
62583;DHT22;48641;51.676;5.808;2022-07-23T13:37:43;24.50;51.50
62583;DHT22;48641;51.676;5.808;2022-07-23T13:40:08;24.50;51.40
62583;DHT22;48641;51.676;5.808;2022-07-23T13:42:35;24.50;51.40
62583;DHT22;48641;51.676;5.808;2022-07-23T13:45:01;24.50;51.30
62583;DHT22;48641;51.676;5.808;2022-07-23T13:47:26;24.50;51.30
62583;DHT22;48641;51.676;5.808;2022-07-23T13:49:52;24.50;51.20
62583;DHT22;48641;51.676;5.808;2022-07-23T13:52:17;24.50;51.30
62583;DHT22;48641;51.676;5.808;2022-07-23T13:54:43;24.60;51.30
62583;DHT22;48641;51.676;5.808;2022-07-23T13:57:08;24.60;51.30
62583;DHT22;48641;51.676;5.808;2022-07-23T13:59:35;24.60;51.20
62583;DHT22;48641;51.676;5.808;2022-07-23T14:02:02;24.60;51.20
62583;DHT22;48641;51.676;5.808;2022-07-23T14:04:28;24.60;51.20
62583;DHT22;48641;51.676;5.808;2022-07-23T14:06:53;24.60;51.20
62583;DHT22;48641;51.676;5.808;2022-07-23T14:09:19;24.60;51.10
62583;DHT22;48641;51.676;5.808;2022-07-23T14:11:44;24.70;51.10
62583;DHT22;48641;51.676;5.808;2022-07-23T14:14:10;24.70;51.20
62583;DHT22;48641;51.676;5.808;2022-07-23T14:16:35;24.70;51.20
62583;DHT22;48641;51.676;5.808;2022-07-23T14:19:01;24.70;51.20
62583;DHT22;48641;51.676;5.808;2022-07-23T14:21:27;24.70;51.20
62583;DHT22;48641;51.676;5.808;2022-07-23T14:23:53;24.70;51.20
62583;DHT22;48641;51.676;5.808;2022-07-23T14:26:19;24.70;51.10
62583;DHT22;48641;51.676;5.808;2022-07-23T14:28:44;24.70;51.00
62583;DHT22;48641;51.676;5.808;2022-07-23T14:31:10;24.70;51.10
62583;DHT22;48641;51.676;5.808;2022-07-23T14:33:36;24.70;51.00
62583;DHT22;48641;51.676;5.808;2022-07-23T14:36:02;24.70;50.70
62583;DHT22;48641;51.676;5.808;2022-07-23T14:38:27;24.70;50.80
62583;DHT22;48641;51.676;5.808;2022-07-23T14:40:53;24.70;50.50
62583;DHT22;48641;51.676;5.808;2022-07-23T14:43:18;24.80;50.70
62583;DHT22;48641;51.676;5.808;2022-07-23T14:45:45;24.70;50.60
62583;DHT22;48641;51.676;5.808;2022-07-23T14:48:10;24.80;50.80
62583;DHT22;48641;51.676;5.808;2022-07-23T14:50:36;24.80;50.80
62583;DHT22;48641;51.676;5.808;2022-07-23T14:53:02;24.80;50.80
62583;DHT22;48641;51.676;5.808;2022-07-23T14:55:27;24.80;50.50
62583;DHT22;48641;51.676;5.808;2022-07-23T14:57:53;24.80;50.50
62583;DHT22;48641;51.676;5.808;2022-07-23T15:00:18;24.80;50.70
62583;DHT22;48641;51.676;5.808;2022-07-23T15:02:44;24.80;50.70
62583;DHT22;48641;51.676;5.808;2022-07-23T15:05:09;24.80;50.70
62583;DHT22;48641;51.676;5.808;2022-07-23T15:07:36;24.80;50.60
62583;DHT22;48641;51.676;5.808;2022-07-23T15:10:02;24.90;50.80
62583;DHT22;48641;51.676;5.808;2022-07-23T15:12:27;24.90;50.80
62583;DHT22;48641;51.676;5.808;2022-07-23T15:14:53;24.90;50.70
62583;DHT22;48641;51.676;5.808;2022-07-23T15:17:19;24.90;50.80
62583;DHT22;48641;51.676;5.808;2022-07-23T15:19:44;24.90;50.80
62583;DHT22;48641;51.676;5.808;2022-07-23T15:22:10;24.80;50.70
62583;DHT22;48641;51.676;5.808;2022-07-23T15:24:35;24.90;50.90
62583;DHT22;48641;51.676;5.808;2022-07-23T15:27:01;24.80;50.90
62583;DHT22;48641;51.676;5.808;2022-07-23T15:29:26;24.90;51.10
62583;DHT22;48641;51.676;5.808;2022-07-23T15:31:52;24.90;51.00
62583;DHT22;48641;51.676;5.808;2022-07-23T15:34:18;24.90;51.00
62583;DHT22;48641;51.676;5.808;2022-07-23T15:36:43;24.90;51.00
62583;DHT22;48641;51.676;5.808;2022-07-23T15:39:09;24.90;51.00
62583;DHT22;48641;51.676;5.808;2022-07-23T15:41:34;24.90;50.90
62583;DHT22;48641;51.676;5.808;2022-07-23T15:44:00;24.80;50.80
62583;DHT22;48641;51.676;5.808;2022-07-23T15:46:26;24.80;51.00
62583;DHT22;48641;51.676;5.808;2022-07-23T15:48:51;24.90;51.20
62583;DHT22;48641;51.676;5.808;2022-07-23T15:51:17;24.90;51.10
62583;DHT22;48641;51.676;5.808;2022-07-23T15:53:43;24.90;51.20
62583;DHT22;48641;51.676;5.808;2022-07-23T15:56:09;24.90;51.00
62583;DHT22;48641;51.676;5.808;2022-07-23T15:58:36;24.90;51.00
62583;DHT22;48641;51.676;5.808;2022-07-23T16:01:03;24.90;52.00
62583;DHT22;48641;51.676;5.808;2022-07-23T16:03:30;24.90;51.00
62583;DHT22;48641;51.676;5.808;2022-07-23T16:05:56;24.90;51.00
62583;DHT22;48641;51.676;5.808;2022-07-23T16:08:21;24.90;51.00
62583;DHT22;48641;51.676;5.808;2022-07-23T16:10:47;24.90;51.10
62583;DHT22;48641;51.676;5.808;2022-07-23T16:13:13;24.80;51.10